Hauptseite
METAR-TAF:

METAR-TAF

Flughäfen :

Yap, Mikronesien

Breite: 09-29N, Länge: 138-05E, Höhe: 28 m

Beobachtung

Neuester Wetterbericht von vor 1 Stunde und 49 Minuten, um 23:50 UTC
Wind 8 kt aus Nordost
Temperatur 28°C
Luftfeuchtigkeit 79%
Luftdruck 1011 hPa
Sichtweite: 19.3 km
Leicht bewölkt in der Höhe von 1600 ft
Durchbrochene Bewölkung in der Höhe von 13000 ft
Geschlossene Wolkendecke in der Höhe von 30000 ft

METAR: PTYA 182350Z 04008KT 12SM FEW016 BKN130 OVC300 28/24 A2984 RMK SLP105 8/171 T02750240 10275 20263 51020

Zeit: 11:39 (01:39 UTC)

Prognose

Neuester Wetterbericht von vor 2 Stunden und 9 Minuten, um 23:30 UTC
Gültige Prognose vom 19 um 00 UTC bis 19 um 24 UTC
Wind 9 kt aus Ost/Nordost
Sichtweite: 10 km
Aufgelockert bewölkt in der Höhe von 1600 ft
Durchbrochene Bewölkung in der Höhe von 13000 ft
Schauer in der Nähe

TAF: PTYA 182330Z 1900/1924 07009KT P6SM VCSH SCT016 BKN130

Wetterbeobachtungen und Prognosen von mehr als 4000 Flughäfen (METAR und TAF Bericht).

Die verfügbaren Stationen werden durch gelbe und rote Markierungen auf der Karte dargestellt.

Führen Sie die Maus auf sie, um den Namen der Station zu sehen.

Darauf klicken, um die Beobachtung von Wetterbeobachtungen und Prognosen zu sehen.

Um die Karte zu ändern : klicken Sie auf den grünen Tasten mit einem schwarzen Kreuz Zum Vergrößern, auf den grünen Button mit einem Gedankenstrich zu verkleinern, oder auf die grünen Pfeile für benachbarte Karten.


METAR-TAF: